createdAt,value
2019-03-10T00:01:46.072Z,14.99
2019-03-10T00:04:16.243Z,14.61
2019-03-10T00:06:47.156Z,14.77
2019-03-10T00:09:18.903Z,14.28
2019-03-10T00:11:49.079Z,14.74
2019-03-10T00:14:19.241Z,14.39
2019-03-10T00:16:51.033Z,14.89
2019-03-10T00:19:21.492Z,14.60
2019-03-10T00:21:51.648Z,14.26
2019-03-10T00:24:21.824Z,14.58
2019-03-10T00:26:54.346Z,14.57
2019-03-10T00:29:30.900Z,14.86
2019-03-10T00:32:01.357Z,14.45
2019-03-10T00:34:31.521Z,15.03
2019-03-10T00:37:04.743Z,15.00
2019-03-10T00:39:56.971Z,15.43
2019-03-10T00:43:20.858Z,15.74
2019-03-10T00:46:56.106Z,15.63
2019-03-10T00:50:07.432Z,14.78
2019-03-10T00:52:45.350Z,15.26
2019-03-10T00:55:16.787Z,15.84
2019-03-10T00:57:47.872Z,15.98
2019-03-10T01:00:21.806Z,14.74
2019-03-10T01:02:56.566Z,15.28
2019-03-10T01:05:30.994Z,15.57
2019-03-10T01:08:02.138Z,15.78
2019-03-10T01:10:37.483Z,16.00
2019-03-10T01:13:10.580Z,16.05
2019-03-10T01:15:41.361Z,15.47
2019-03-10T01:18:13.777Z,15.83
2019-03-10T01:20:44.646Z,15.60
2019-03-10T01:23:15.569Z,15.44
2019-03-10T01:25:46.724Z,14.79
2019-03-10T01:28:20.089Z,14.74
2019-03-10T01:31:04.289Z,14.69
2019-03-10T01:33:54.169Z,14.93
2019-03-10T01:36:25.644Z,15.53
2019-03-10T01:38:55.815Z,14.88
2019-03-10T01:44:05.659Z,14.14
2019-03-10T01:46:36.160Z,13.94
2019-03-10T01:49:06.359Z,14.57
2019-03-10T01:51:36.525Z,13.71
2019-03-10T01:54:07.020Z,14.32
2019-03-10T01:56:38.137Z,14.22
2019-03-10T01:59:09.956Z,13.58
2019-03-10T02:01:42.413Z,14.68
2019-03-10T02:04:14.229Z,14.41
2019-03-10T02:06:46.266Z,14.62
2019-03-10T02:09:17.108Z,13.95
2019-03-10T02:11:47.646Z,14.48
2019-03-10T02:14:19.911Z,14.98
2019-03-10T02:16:53.869Z,14.81
2019-03-10T02:19:24.066Z,14.02
2019-03-10T02:21:56.517Z,14.99
2019-03-10T02:24:29.195Z,14.45
2019-03-10T02:27:00.961Z,14.83
2019-03-10T02:29:31.613Z,14.95
2019-03-10T02:32:07.984Z,14.95
2019-03-10T02:34:38.422Z,13.76
2019-03-10T02:37:10.043Z,14.45
2019-03-10T02:39:40.217Z,14.85
2019-03-10T02:42:10.727Z,14.58
2019-03-10T02:44:40.922Z,14.82
2019-03-10T02:47:13.635Z,14.37
2019-03-10T02:49:45.423Z,15.00
2019-03-10T02:52:15.593Z,15.18
2019-03-10T02:54:47.133Z,15.28
2019-03-10T02:57:17.747Z,15.87
2019-03-10T02:59:52.292Z,15.87
2019-03-10T03:02:22.702Z,16.08
2019-03-10T03:04:52.898Z,16.34
2019-03-10T03:07:23.468Z,16.23
2019-03-10T03:09:54.679Z,16.43
2019-03-10T03:12:24.837Z,16.21
2019-03-10T03:14:57.858Z,15.80
2019-03-10T03:17:30.819Z,16.02
2019-03-10T03:20:01.712Z,15.75
2019-03-10T03:22:34.812Z,15.62
2019-03-10T03:25:07.297Z,14.85
2019-03-10T03:27:37.450Z,14.19
2019-03-10T03:30:12.954Z,13.29
2019-03-10T03:32:50.754Z,13.81
2019-03-10T03:35:51.983Z,13.33
2019-03-10T03:38:25.619Z,13.53
2019-03-10T03:41:03.134Z,13.37
2019-03-10T03:43:33.684Z,13.67
2019-03-10T03:46:03.865Z,14.22
2019-03-10T03:48:34.038Z,14.49
2019-03-10T03:51:04.518Z,14.69
2019-03-10T03:53:35.962Z,14.78
2019-03-10T03:56:07.453Z,15.04
2019-03-10T03:58:38.452Z,15.29
2019-03-10T04:01:18.303Z,14.59
2019-03-10T04:03:49.220Z,14.74
2019-03-10T04:06:19.397Z,14.82
2019-03-10T04:08:49.904Z,15.03
2019-03-10T04:11:21.127Z,15.14
2019-03-10T04:13:57.357Z,14.64
2019-03-10T04:16:27.881Z,14.62
2019-03-10T04:19:03.088Z,14.95
2019-03-10T04:21:33.246Z,14.92
2019-03-10T04:24:05.416Z,15.05
2019-03-10T04:26:35.571Z,15.10
2019-03-10T04:29:05.714Z,15.28
2019-03-10T04:31:36.725Z,14.83
2019-03-10T04:34:21.673Z,14.98
2019-03-10T04:39:20.784Z,14.77
2019-03-10T04:41:51.826Z,14.49
2019-03-10T04:44:25.735Z,14.81
2019-03-10T04:46:57.295Z,14.64
2019-03-10T04:49:28.458Z,14.78
2019-03-10T04:51:58.965Z,14.75
2019-03-10T04:54:56.746Z,14.65
2019-03-10T04:57:27.527Z,14.68
2019-03-10T04:59:57.691Z,14.76
2019-03-10T05:02:29.525Z,14.69
2019-03-10T05:05:00.505Z,14.85
2019-03-10T05:07:33.034Z,14.50
2019-03-10T05:10:04.823Z,14.39
2019-03-10T05:12:40.618Z,14.61
2019-03-10T05:15:11.206Z,14.73
2019-03-10T05:17:41.403Z,14.57
2019-03-10T05:20:12.006Z,14.16
2019-03-10T05:22:42.574Z,14.57
2019-03-10T05:25:13.187Z,14.16
2019-03-10T05:27:44.188Z,14.24
2019-03-10T05:30:15.111Z,14.60
2019-03-10T05:32:45.310Z,14.53
2019-03-10T05:35:21.215Z,14.80
2019-03-10T05:37:53.819Z,13.49
2019-03-10T05:40:24.705Z,13.36
2019-03-10T05:42:56.553Z,13.47
2019-03-10T05:45:26.717Z,12.65
2019-03-10T05:48:01.258Z,13.22
2019-03-10T05:50:31.411Z,13.56
2019-03-10T05:53:01.369Z,13.63
2019-03-10T05:55:32.330Z,12.98
2019-03-10T05:58:02.771Z,13.04
2019-03-10T06:00:42.602Z,13.12
2019-03-10T06:03:08.394Z,12.91
2019-03-10T06:05:42.891Z,12.93
2019-03-10T06:08:13.056Z,12.37
2019-03-10T06:10:43.623Z,12.75
2019-03-10T06:13:16.090Z,13.09
2019-03-10T06:15:46.241Z,12.61
2019-03-10T06:18:16.402Z,12.55
2019-03-10T06:20:47.943Z,13.23
2019-03-10T06:23:18.831Z,12.24
2019-03-10T06:25:49.108Z,12.78
2019-03-10T06:28:19.257Z,13.39
2019-03-10T06:30:49.842Z,13.07
2019-03-10T06:33:20.457Z,12.45
2019-03-10T06:35:51.584Z,12.94
2019-03-10T06:38:21.716Z,12.56
2019-03-10T06:40:51.968Z,12.66
2019-03-10T06:43:22.523Z,12.14
2019-03-10T06:45:52.688Z,12.35
2019-03-10T06:48:22.858Z,12.50
2019-03-10T06:50:53.036Z,12.69
2019-03-10T06:53:23.204Z,12.32
2019-03-10T06:55:54.507Z,12.27
2019-03-10T06:58:25.447Z,11.94
2019-03-10T07:00:56.170Z,12.48
2019-03-10T07:03:27.871Z,13.05
2019-03-10T07:05:58.058Z,12.78
2019-03-10T07:08:29.902Z,13.04
2019-03-10T07:11:00.753Z,13.11
2019-03-10T07:13:30.905Z,13.06
2019-03-10T07:16:03.158Z,12.65
2019-03-10T07:18:34.481Z,12.48
2019-03-10T07:21:05.083Z,12.79
2019-03-10T07:23:35.246Z,13.11
2019-03-10T07:26:07.633Z,12.97
2019-03-10T07:28:49.760Z,11.88
2019-03-10T07:31:42.409Z,12.51
2019-03-10T07:34:35.595Z,13.08
2019-03-10T07:37:32.783Z,12.91
2019-03-10T07:40:27.773Z,12.67
2019-03-10T07:43:24.757Z,13.07
2019-03-10T07:46:20.225Z,12.63
2019-03-10T07:49:09.183Z,12.75
2019-03-10T07:52:02.786Z,11.83
2019-03-10T07:54:44.888Z,12.59
2019-03-10T07:57:33.442Z,12.53
2019-03-10T08:00:32.469Z,12.65
2019-03-10T08:03:22.004Z,12.78
2019-03-10T08:06:03.318Z,13.07
2019-03-10T08:09:00.417Z,13.48
2019-03-10T08:11:37.179Z,13.81
2019-03-10T08:14:26.663Z,13.62
2019-03-10T08:17:09.994Z,13.73
2019-03-10T08:20:05.811Z,14.32
2019-03-10T08:22:54.367Z,14.52
2019-03-10T08:25:49.778Z,14.85
2019-03-10T08:28:34.001Z,15.19
2019-03-10T08:31:39.032Z,15.10
2019-03-10T08:34:27.496Z,14.78
2019-03-10T08:37:12.227Z,15.08
2019-03-10T08:40:12.667Z,15.36
2019-03-10T08:43:09.405Z,15.35
2019-03-10T08:46:04.632Z,15.49
2019-03-10T08:48:46.520Z,15.34
2019-03-10T08:51:43.369Z,15.60
2019-03-10T08:54:41.932Z,15.82
2019-03-10T08:57:46.252Z,15.82
2019-03-10T09:00:41.696Z,15.60
2019-03-10T09:03:18.767Z,16.24
2019-03-10T09:06:07.113Z,15.62
2019-03-10T09:09:07.688Z,15.46
2019-03-10T09:11:49.250Z,15.88
2019-03-10T09:14:41.041Z,15.76
2019-03-10T09:17:30.546Z,15.91
2019-03-10T09:20:13.145Z,15.97
2019-03-10T09:23:08.971Z,15.65
2019-03-10T09:25:57.581Z,15.90
2019-03-10T09:28:48.053Z,15.43
2019-03-10T09:31:33.971Z,15.75
2019-03-10T09:34:32.313Z,16.09
2019-03-10T09:37:31.065Z,15.80
2019-03-10T09:40:20.280Z,15.08
2019-03-10T09:43:15.692Z,15.50
2019-03-10T09:46:00.877Z,16.02
2019-03-10T09:49:05.248Z,16.01
2019-03-10T09:52:10.500Z,16.43
2019-03-10T09:55:01.078Z,16.35
2019-03-10T09:57:49.704Z,15.20
2019-03-10T10:00:28.891Z,15.36
2019-03-10T10:03:17.376Z,15.51
2019-03-10T10:06:01.100Z,15.66
2019-03-10T10:08:45.114Z,14.88
2019-03-10T10:11:35.018Z,14.63
2019-03-10T10:14:24.908Z,14.78
2019-03-10T10:17:21.181Z,15.17
2019-03-10T10:20:07.491Z,15.89
2019-03-10T10:22:56.820Z,16.15
2019-03-10T10:25:33.604Z,16.73
2019-03-10T10:28:21.947Z,17.42
2019-03-10T10:30:59.973Z,17.54
2019-03-10T10:33:50.303Z,17.14
2019-03-10T10:36:43.003Z,17.03
2019-03-10T10:39:30.532Z,16.72
2019-03-10T10:42:39.720Z,15.98
2019-03-10T10:45:36.440Z,16.27
2019-03-10T10:48:27.531Z,14.89
2019-03-10T10:51:17.744Z,15.07
2019-03-10T10:54:07.878Z,14.65
2019-03-10T10:56:56.094Z,14.70
2019-03-10T10:59:33.276Z,14.44
2019-03-10T11:02:12.730Z,15.05
2019-03-10T11:05:01.800Z,15.62
2019-03-10T11:07:58.139Z,16.04
2019-03-10T11:10:41.638Z,17.17
2019-03-10T11:13:21.373Z,17.73
2019-03-10T11:16:07.241Z,17.58
2019-03-10T11:19:05.999Z,17.82
2019-03-10T11:21:54.272Z,17.61
2019-03-10T11:24:41.197Z,17.50
2019-03-10T11:27:16.660Z,18.07
2019-03-10T11:29:55.844Z,17.55
2019-03-10T11:32:43.365Z,18.33
2019-03-10T11:35:44.734Z,16.86
2019-03-10T11:38:40.014Z,16.49
2019-03-10T11:41:47.954Z,18.21
2019-03-10T11:44:44.878Z,18.21
2019-03-10T11:47:30.002Z,16.36
2019-03-10T11:50:31.221Z,16.78
2019-03-10T11:53:35.517Z,15.78
2019-03-10T11:56:25.088Z,15.87
2019-03-10T11:59:13.707Z,15.71
2019-03-10T12:01:58.284Z,15.07
2019-03-10T12:04:46.518Z,15.82
2019-03-10T12:07:33.733Z,15.71
2019-03-10T12:10:05.249Z,16.21
2019-03-10T12:12:35.731Z,15.76
2019-03-10T12:15:08.527Z,15.45
2019-03-10T12:17:42.662Z,16.11
2019-03-10T12:20:12.997Z,16.34
2019-03-10T12:22:43.142Z,17.64
2019-03-10T12:25:13.954Z,17.72
2019-03-10T12:27:44.580Z,16.78
2019-03-10T12:30:16.221Z,17.79
2019-03-10T12:32:47.477Z,16.69
2019-03-10T12:35:18.055Z,17.33
2019-03-10T12:37:48.761Z,17.35
2019-03-10T12:40:19.412Z,17.20
2019-03-10T12:42:50.872Z,16.34
2019-03-10T12:45:26.137Z,15.38
2019-03-10T12:47:56.288Z,16.16
2019-03-10T12:50:27.730Z,15.53
2019-03-10T12:52:57.901Z,15.43
2019-03-10T12:55:28.426Z,15.78
2019-03-10T12:57:58.585Z,15.06
2019-03-10T13:00:34.135Z,15.57
2019-03-10T13:03:06.770Z,15.97
2019-03-10T13:05:42.871Z,17.16
2019-03-10T13:08:13.706Z,17.41
2019-03-10T13:10:44.301Z,19.60
2019-03-10T13:13:15.959Z,19.11
2019-03-10T13:15:53.417Z,18.04
2019-03-10T13:18:24.311Z,18.03
2019-03-10T13:20:57.170Z,19.63
2019-03-10T13:23:30.184Z,19.23
2019-03-10T13:26:00.383Z,19.65
2019-03-10T13:28:30.607Z,18.84
2019-03-10T13:33:38.301Z,17.34
2019-03-10T13:36:10.234Z,17.15
2019-03-10T13:38:41.050Z,18.05
2019-03-10T13:41:13.178Z,20.24
2019-03-10T13:43:43.369Z,20.70
2019-03-10T13:46:16.557Z,19.08
2019-03-10T13:48:47.094Z,18.97
2019-03-10T13:51:17.294Z,19.68
2019-03-10T13:53:48.018Z,20.62
2019-03-10T13:56:20.178Z,21.43
2019-03-10T13:58:53.046Z,20.66
2019-03-10T14:01:25.347Z,22.54
2019-03-10T14:03:56.014Z,20.87
2019-03-10T14:06:28.897Z,20.87
2019-03-10T14:09:01.002Z,21.15
2019-03-10T14:11:32.857Z,20.33
2019-03-10T14:14:04.377Z,22.50
2019-03-10T14:16:35.487Z,21.70
2019-03-10T14:19:06.919Z,22.69
2019-03-10T14:21:38.704Z,22.64
2019-03-10T14:24:09.215Z,22.31
2019-03-10T14:26:43.830Z,24.33
2019-03-10T14:29:16.629Z,23.29
2019-03-10T14:31:46.813Z,22.53
2019-03-10T14:34:16.997Z,22.05
2019-03-10T14:36:47.177Z,22.05
2019-03-10T14:39:19.071Z,21.73
2019-03-10T14:41:51.721Z,20.54
2019-03-10T14:44:21.895Z,20.15
2019-03-10T14:46:53.736Z,19.20
2019-03-10T14:49:23.913Z,17.33
2019-03-10T14:51:55.981Z,17.49
2019-03-10T14:54:26.960Z,16.68
2019-03-10T14:56:57.202Z,16.41
2019-03-10T14:59:27.384Z,15.94
2019-03-10T15:02:03.023Z,16.03
2019-03-10T15:04:36.709Z,15.84
2019-03-10T15:07:06.870Z,15.50
2019-03-10T15:09:37.361Z,14.94
2019-03-10T15:12:09.900Z,14.55
2019-03-10T15:14:40.077Z,14.54
2019-03-10T15:17:11.477Z,13.63
2019-03-10T15:19:42.091Z,13.50
2019-03-10T15:22:12.219Z,14.17
2019-03-10T15:24:42.414Z,14.65
2019-03-10T15:27:22.827Z,14.34
2019-03-10T15:29:44.433Z,14.20
2019-03-10T15:32:15.973Z,14.08
2019-03-10T15:34:47.723Z,13.88
2019-03-10T15:37:17.872Z,14.16
2019-03-10T15:39:48.071Z,14.30
2019-03-10T15:42:18.548Z,14.00
2019-03-10T15:44:48.824Z,14.22
2019-03-10T15:47:21.277Z,13.79
2019-03-10T15:49:51.966Z,14.05
2019-03-10T15:52:22.127Z,14.06
2019-03-10T15:54:52.269Z,14.03
2019-03-10T15:57:22.434Z,13.67
2019-03-10T15:59:53.032Z,13.16
2019-03-10T16:02:23.846Z,12.72
2019-03-10T16:04:55.841Z,12.61
2019-03-10T16:07:26.083Z,12.95
2019-03-10T16:09:56.298Z,13.45
2019-03-10T16:12:26.511Z,13.49
2019-03-10T16:14:57.094Z,13.46
2019-03-10T16:17:27.287Z,13.70
2019-03-10T16:19:57.460Z,13.44
2019-03-10T16:22:27.632Z,13.34
2019-03-10T16:24:57.930Z,13.89
2019-03-10T16:27:28.565Z,13.41
2019-03-10T16:29:58.713Z,13.29
2019-03-10T16:32:28.910Z,13.53
2019-03-10T16:34:59.069Z,13.73
2019-03-10T16:37:29.249Z,13.63
2019-03-10T16:39:59.673Z,13.63
2019-03-10T16:42:30.421Z,12.93
2019-03-10T16:45:00.577Z,12.89
2019-03-10T16:47:32.211Z,13.19
2019-03-10T16:50:02.377Z,13.53
2019-03-10T16:52:35.195Z,13.66
2019-03-10T16:55:06.963Z,13.49
2019-03-10T16:57:37.605Z,13.93
2019-03-10T17:00:08.939Z,13.48
2019-03-10T17:02:39.961Z,12.56
2019-03-10T17:05:12.411Z,12.37
2019-03-10T17:07:42.884Z,12.86
2019-03-10T17:10:14.366Z,13.36
2019-03-10T17:12:44.526Z,12.66
2019-03-10T17:15:16.206Z,13.23
2019-03-10T17:17:46.857Z,13.01
2019-03-10T17:20:17.598Z,12.40
2019-03-10T17:22:48.544Z,12.33
2019-03-10T17:25:19.986Z,12.09
2019-03-10T17:27:50.903Z,12.42
2019-03-10T17:30:23.414Z,12.55
2019-03-10T17:33:02.827Z,12.82
2019-03-10T17:35:37.251Z,12.53
2019-03-10T17:38:07.573Z,12.70
2019-03-10T17:40:40.429Z,12.66
2019-03-10T17:43:10.797Z,12.87
2019-03-10T17:45:41.678Z,12.22
2019-03-10T17:48:13.586Z,12.45
2019-03-10T17:50:46.119Z,11.61
2019-03-10T17:53:16.733Z,12.10
2019-03-10T17:55:47.404Z,12.43
2019-03-10T17:58:20.942Z,12.45
2019-03-10T18:00:52.868Z,12.13
2019-03-10T18:03:23.755Z,12.44
2019-03-10T18:05:54.495Z,12.47
2019-03-10T18:08:25.060Z,12.52
2019-03-10T18:10:55.653Z,12.55
2019-03-10T18:13:26.222Z,12.13
2019-03-10T18:15:56.811Z,12.20
2019-03-10T18:18:27.054Z,12.06
2019-03-10T18:20:58.284Z,12.33
2019-03-10T18:23:29.352Z,12.32
2019-03-10T18:25:59.891Z,12.23
2019-03-10T18:28:30.637Z,12.53
2019-03-10T18:31:03.380Z,12.98
2019-03-10T18:33:34.899Z,12.86
2019-03-10T18:36:05.060Z,12.70
2019-03-10T18:38:35.239Z,13.12
2019-03-10T18:41:05.610Z,12.61
2019-03-10T18:43:36.234Z,13.06
2019-03-10T18:46:06.386Z,12.70
2019-03-10T18:48:39.791Z,12.05
2019-03-10T18:51:09.942Z,11.53
2019-03-10T18:53:40.100Z,11.68
2019-03-10T18:56:12.440Z,12.38
2019-03-10T18:58:42.591Z,12.28
2019-03-10T19:01:12.839Z,12.65
2019-03-10T19:03:43.817Z,12.42
2019-03-10T19:06:15.664Z,12.25
2019-03-10T19:08:45.832Z,12.61
2019-03-10T19:11:16.697Z,12.31
2019-03-10T19:13:46.850Z,12.59
2019-03-10T19:16:18.180Z,12.68
2019-03-10T19:18:48.335Z,12.54
2019-03-10T19:21:18.521Z,12.76
2019-03-10T19:23:49.108Z,12.81
2019-03-10T19:26:19.697Z,13.01
2019-03-10T19:28:49.871Z,13.34
2019-03-10T19:31:20.038Z,13.28
2019-03-10T19:33:50.238Z,13.45
2019-03-10T19:36:20.747Z,13.56
2019-03-10T19:38:51.326Z,13.27
2019-03-10T19:41:23.835Z,13.17
2019-03-10T19:43:54.019Z,13.27
2019-03-10T19:46:24.301Z,13.06
2019-03-10T19:48:56.180Z,12.48
2019-03-10T19:51:32.773Z,11.36
2019-03-10T19:54:04.576Z,10.29
2019-03-10T19:56:34.854Z,10.45
2019-03-10T19:59:06.018Z,10.61
2019-03-10T20:01:36.735Z,10.38
2019-03-10T20:04:07.106Z,10.90
2019-03-10T20:06:37.280Z,11.07
2019-03-10T20:09:08.021Z,11.50
2019-03-10T20:11:39.500Z,11.61
2019-03-10T20:14:11.195Z,11.91
2019-03-10T20:16:41.371Z,11.64
2019-03-10T20:19:11.907Z,11.31
2019-03-10T20:21:42.058Z,11.52
2019-03-10T20:24:12.222Z,11.91
2019-03-10T20:26:42.418Z,12.24
2019-03-10T20:29:13.291Z,12.13
2019-03-10T20:31:43.542Z,11.07
2019-03-10T20:34:34.109Z,9.19
2019-03-10T20:37:04.585Z,9.24
2019-03-10T20:39:36.243Z,8.19
2019-03-10T20:42:06.610Z,8.19
2019-03-10T20:44:37.258Z,8.25
2019-03-10T20:47:07.997Z,7.74
2019-03-10T20:49:41.001Z,7.65
2019-03-10T20:52:11.175Z,8.32
2019-03-10T20:54:41.357Z,8.55
2019-03-10T20:57:12.093Z,9.10
2019-03-10T20:59:43.364Z,8.99
2019-03-10T21:02:13.656Z,9.12
2019-03-10T21:04:43.811Z,9.61
2019-03-10T21:07:14.525Z,9.40
2019-03-10T21:09:44.703Z,9.71
2019-03-10T21:12:15.028Z,9.84
2019-03-10T21:14:45.225Z,10.02
2019-03-10T21:17:16.000Z,10.12
2019-03-10T21:19:46.530Z,9.59
2019-03-10T21:22:21.007Z,9.92
2019-03-10T21:24:56.510Z,10.11
2019-03-10T21:27:27.576Z,9.41
2019-03-10T21:30:02.979Z,9.60
2019-03-10T21:32:38.187Z,9.76
2019-03-10T21:35:17.199Z,9.40
2019-03-10T21:37:41.703Z,10.28
2019-03-10T21:40:13.304Z,10.10
2019-03-10T21:42:44.420Z,10.10
2019-03-10T21:45:14.571Z,10.05
2019-03-10T21:47:44.741Z,9.60
2019-03-10T21:50:15.786Z,9.78
2019-03-10T21:52:46.589Z,9.45
2019-03-10T21:55:17.946Z,9.39
2019-03-10T21:57:49.366Z,9.49
2019-03-10T22:00:21.764Z,9.67
2019-03-10T22:03:02.449Z,9.64
2019-03-10T22:06:35.955Z,9.92
2019-03-10T22:10:27.673Z,9.49
2019-03-10T22:12:57.581Z,9.90
2019-03-10T22:15:28.321Z,9.50
2019-03-10T22:17:58.526Z,9.29
2019-03-10T22:20:28.749Z,9.64
2019-03-10T22:23:59.637Z,9.57
2019-03-10T22:42:08.760Z,9.91
2019-03-10T22:44:39.173Z,9.98
2019-03-10T22:47:09.335Z,10.12
2019-03-10T22:49:39.483Z,10.27
2019-03-10T22:52:11.820Z,9.54
2019-03-10T22:54:41.983Z,10.14
2019-03-10T22:57:12.510Z,9.96
2019-03-10T22:59:45.287Z,10.11
2019-03-10T23:02:15.999Z,10.09
2019-03-10T23:04:47.376Z,9.98
2019-03-10T23:07:18.692Z,10.54
2019-03-10T23:09:49.323Z,10.26
2019-03-10T23:12:20.165Z,9.63
2019-03-10T23:14:50.773Z,9.33
2019-03-10T23:17:21.380Z,9.44
2019-03-10T23:19:51.532Z,9.98
2019-03-10T23:22:21.707Z,10.01
2019-03-10T23:24:52.296Z,10.45
2019-03-10T23:27:22.581Z,10.78
2019-03-10T23:29:52.893Z,10.76
2019-03-10T23:32:24.604Z,9.83
2019-03-10T23:34:55.323Z,10.19
2019-03-10T23:37:25.500Z,10.02
2019-03-10T23:39:55.648Z,10.04
2019-03-10T23:42:25.886Z,10.28
2019-03-10T23:44:56.639Z,10.53
2019-03-10T23:47:27.213Z,9.91
2019-03-10T23:49:57.380Z,10.64
2019-03-10T23:52:28.197Z,10.79
2019-03-10T23:54:58.877Z,9.91
2019-03-10T23:57:31.183Z,10.28
